Time;durP1;ratioP1;P1;durP2;ratioP2;P2;SDS_P1;SDS_P2;PMS_P1;PMS_P2;Temp;Humidity;BMP_temperature;BMP_pressure;BME280_temperature;BME280_humidity;BME280_pressure;Samples;Min_cycle;Max_cycle;Signal;HPM_P1;HPM_P2
2022/02/08 00:00:18;;;;;;;5.78;2.42;;;22.40;68.80;;;;;;4148297;28;20053;-75
2022/02/08 00:02:42;;;;;;;2.65;1.48;;;22.40;68.50;;;;;;4147443;28;20042;-73
2022/02/08 00:05:07;;;;;;;6.95;2.33;;;22.40;68.90;;;;;;4132756;28;20555;-72
2022/02/08 00:07:32;;;;;;;6.20;2.05;;;22.40;69.50;;;;;;4144611;28;20041;-72
2022/02/08 00:09:54;;;;;;;5.28;1.88;;;22.40;70.30;;;;;;4147152;28;20035;-72
2022/02/08 00:12:16;;;;;;;3.42;1.40;;;22.40;70.00;;;;;;4145998;28;20041;-72
2022/02/08 00:14:39;;;;;;;5.10;1.55;;;22.50;69.70;;;;;;4147529;28;20041;-73
2022/02/08 00:17:01;;;;;;;6.80;1.75;;;22.50;69.50;;;;;;4149121;28;20066;-72
2022/02/08 00:19:24;;;;;;;7.00;1.75;;;22.60;69.30;;;;;;4151425;28;20118;-73
2022/02/08 00:21:46;;;;;;;3.55;1.40;;;22.60;69.20;;;;;;4152751;28;20089;-72
2022/02/08 00:24:09;;;;;;;4.97;1.55;;;22.60;69.30;;;;;;4152182;28;20442;-72
2022/02/08 00:26:31;;;;;;;6.60;1.73;;;22.70;68.90;;;;;;4150475;28;20030;-74
2022/02/08 00:28:54;;;;;;;4.88;1.55;;;22.70;68.80;;;;;;4152398;28;20042;-72
2022/02/08 00:31:19;;;;;;;3.75;1.13;;;22.70;68.70;;;;;;4148743;28;20034;-72
2022/02/08 00:33:41;;;;;;;9.95;1.52;;;22.70;68.70;;;;;;4149735;28;20053;-71
2022/02/08 00:36:05;;;;;;;4.82;1.27;;;22.80;68.60;;;;;;4148915;28;20045;-72
2022/02/08 00:38:28;;;;;;;14.75;1.58;;;22.80;68.50;;;;;;4149266;28;20459;-70
2022/02/08 00:40:55;;;;;;;14.43;1.73;;;22.80;68.60;;;;;;4148298;28;20084;-71
2022/02/08 00:43:24;;;;;;;7.50;1.55;;;22.80;68.30;;;;;;4146991;28;20117;-70
2022/02/08 00:46:00;;;;;;;14.35;1.70;;;22.90;68.40;;;;;;4146278;28;20712;-71
2022/02/08 00:48:36;;;;;;;5.35;1.90;;;22.90;68.00;;;;;;4148602;28;20071;-70
2022/02/08 00:51:02;;;;;;;5.38;0.95;;;22.90;67.70;;;;;;4149493;28;20631;-70
2022/02/08 00:53:25;;;;;;;3.65;1.42;;;23.00;67.70;;;;;;4132584;28;20050;-73
2022/02/08 00:55:48;;;;;;;6.53;1.27;;;23.00;67.50;;;;;;4148500;28;20127;-73
2022/02/08 00:58:10;;;;;;;5.10;0.98;;;23.00;67.70;;;;;;4146767;28;21316;-72
2022/02/08 01:00:35;;;;;;;5.20;1.40;;;23.00;67.00;;;;;;4147417;28;20037;-73
2022/02/08 01:02:58;;;;;;;4.55;1.00;;;23.00;66.90;;;;;;4146537;28;20038;-72
2022/02/08 01:05:21;;;;;;;1.90;1.08;;;23.10;67.50;;;;;;4137703;28;20041;-69
2022/02/08 01:07:43;;;;;;;3.25;1.20;;;23.10;67.00;;;;;;4145472;28;20064;-70
2022/02/08 01:10:08;;;;;;;4.25;1.40;;;23.00;67.00;;;;;;4146944;28;20069;-69
2022/02/08 01:12:34;;;;;;;2.33;1.00;;;23.10;67.00;;;;;;4145669;28;20178;-69
2022/02/08 01:14:58;;;;;;;4.20;1.38;;;23.10;67.10;;;;;;4144782;28;20673;-69
2022/02/08 01:17:22;;;;;;;3.00;1.20;;;23.10;66.70;;;;;;4143784;28;20042;-69
2022/02/08 01:19:51;;;;;;;1.58;0.90;;;23.20;66.70;;;;;;4143646;28;20042;-70
2022/02/08 01:22:13;;;;;;;2.85;0.90;;;23.20;66.80;;;;;;4142646;28;20059;-69
2022/02/08 01:24:36;;;;;;;2.67;0.93;;;23.20;66.40;;;;;;4146050;28;20065;-70
2022/02/08 01:27:06;;;;;;;4.05;1.08;;;23.30;66.50;;;;;;4130854;28;20125;-71
2022/02/08 01:29:39;;;;;;;2.38;0.57;;;23.30;66.50;;;;;;4146712;28;20059;-69
2022/02/08 01:32:16;;;;;;;1.45;0.70;;;23.30;66.40;;;;;;4145090;28;20041;-69
2022/02/08 01:34:53;;;;;;;2.75;1.00;;;23.30;66.50;;;;;;4146404;28;20111;-69
2022/02/08 01:37:40;;;;;;;2.05;1.00;;;23.40;66.10;;;;;;4143996;28;20038;-69
2022/02/08 01:40:09;;;;;;;1.65;0.95;;;23.40;66.20;;;;;;4144851;28;20079;-69
2022/02/08 01:48:29;;;;;;;2.92;0.98;;;23.50;65.20;;;;;;4147526;28;20187;-70
2022/02/08 01:50:20;;;;;;;2.65;1.05;;;23.40;65.10;;;;;;4146146;28;20068;-64
2022/02/08 01:52:44;;;;;;;2.25;1.00;;;23.40;64.60;;;;;;4143043;28;20391;-63
2022/02/08 01:55:09;;;;;;;2.03;1.20;;;23.40;64.60;;;;;;4145060;28;20050;-63
2022/02/08 01:57:31;;;;;;;3.92;1.30;;;23.50;64.70;;;;;;4147789;28;20074;-63
2022/02/08 01:59:54;;;;;;;3.28;1.27;;;23.50;64.70;;;;;;4143016;28;20038;-63
2022/02/08 02:02:17;;;;;;;2.83;2.20;;;23.50;64.80;;;;;;4145640;28;20029;-65
2022/02/08 02:04:39;;;;;;;4.00;1.60;;;23.50;64.40;;;;;;4145038;28;20037;-64
2022/02/08 02:07:02;;;;;;;3.00;1.40;;;23.50;64.40;;;;;;4145065;28;20705;-70
2022/02/08 02:09:25;;;;;;;3.73;1.53;;;23.60;64.60;;;;;;4147452;28;20557;-71
2022/02/08 02:11:47;;;;;;;2.65;1.23;;;23.60;64.70;;;;;;4143627;28;20438;-71
2022/02/08 02:14:09;;;;;;;2.78;1.40;;;23.60;64.30;;;;;;4146037;28;20060;-70
2022/02/08 02:17:07;;;;;;;3.17;1.95;;;23.60;64.20;;;;;;4144499;28;20046;-71
2022/02/08 02:19:23;;;;;;;4.97;1.75;;;23.70;64.80;;;;;;4145357;28;20056;-69
2022/02/08 02:21:46;;;;;;;4.55;1.65;;;23.70;63.40;;;;;;4130742;28;20129;-69
2022/02/08 02:24:09;;;;;;;5.15;1.88;;;23.70;63.00;;;;;;4146076;28;20555;-70
2022/02/08 02:26:31;;;;;;;3.90;1.60;;;23.70;62.10;;;;;;4145726;28;20038;-71
2022/02/08 02:28:54;;;;;;;4.57;1.70;;;23.70;62.20;;;;;;4143705;28;20085;-73
2022/02/08 02:31:20;;;;;;;4.30;1.58;;;23.70;61.70;;;;;;4144525;28;20095;-72
2022/02/08 02:33:42;;;;;;;4.50;1.27;;;23.70;61.80;;;;;;4145064;28;20053;-72
2022/02/08 02:36:07;;;;;;;3.42;1.23;;;23.70;61.70;;;;;;4142496;28;20063;-73
2022/02/08 02:38:29;;;;;;;4.35;1.88;;;23.80;61.70;;;;;;4143681;28;20195;-74
2022/02/08 02:40:53;;;;;;;5.28;1.30;;;23.80;61.40;;;;;;4143727;28;20041;-71
2022/02/08 02:43:15;;;;;;;3.13;1.50;;;23.80;61.20;;;;;;4143241;28;20041;-73
2022/02/08 02:45:38;;;;;;;3.53;1.20;;;23.80;60.90;;;;;;4143252;28;20030;-70
2022/02/08 02:48:01;;;;;;;3.08;1.50;;;23.80;60.50;;;;;;4143653;28;20042;-69
2022/02/08 02:50:25;;;;;;;3.47;1.10;;;23.80;61.50;;;;;;4141959;28;20026;-70
2022/02/08 02:52:47;;;;;;;3.30;0.93;;;23.80;61.70;;;;;;4140970;28;20180;-70
2022/02/08 02:55:13;;;;;;;1.65;0.77;;;23.90;61.80;;;;;;4142815;28;21135;-70
2022/02/08 02:57:36;;;;;;;3.60;0.82;;;23.90;62.40;;;;;;4145165;28;20041;-70
2022/02/08 03:00:08;;;;;;;2.58;1.00;;;24.00;61.60;;;;;;4144062;28;20034;-73
2022/02/08 03:02:41;;;;;;;1.70;0.60;;;24.00;60.80;;;;;;4142561;28;20216;-70
2022/02/08 03:18:46;;;;;;;3.65;1.10;;;24.30;61.20;;;;;;4143276;28;20041;-71
2022/02/08 03:21:10;;;;;;;2.35;0.85;;;24.40;60.80;;;;;;4143302;28;20037;-71
2022/02/08 03:23:32;;;;;;;2.03;0.80;;;24.40;60.70;;;;;;4144631;28;20037;-71
2022/02/08 03:25:55;;;;;;;1.83;0.70;;;24.40;60.80;;;;;;4143646;28;20038;-71
2022/02/08 03:28:17;;;;;;;2.22;0.80;;;24.50;60.20;;;;;;4144689;28;20065;-70
2022/02/08 03:30:40;;;;;;;2.55;0.82;;;24.50;60.20;;;;;;4145413;28;20736;-73
2022/02/08 03:33:03;;;;;;;3.63;0.93;;;24.50;60.70;;;;;;4145587;28;20049;-70
2022/02/08 03:35:26;;;;;;;3.17;0.93;;;24.50;60.50;;;;;;4147761;28;20053;-70
2022/02/08 03:37:58;;;;;;;3.80;0.70;;;24.60;60.80;;;;;;4143874;28;20130;-73
2022/02/08 03:40:38;;;;;;;1.77;0.73;;;24.60;60.80;;;;;;4132522;28;20068;-73
2022/02/08 03:43:13;;;;;;;3.40;1.20;;;24.60;61.00;;;;;;4147493;28;20384;-70
2022/02/08 03:45:36;;;;;;;2.50;0.98;;;24.60;60.60;;;;;;4139571;28;20144;-70
2022/02/08 03:47:59;;;;;;;3.83;0.95;;;24.70;60.70;;;;;;4140773;28;20703;-69
2022/02/08 03:50:21;;;;;;;2.47;0.80;;;24.70;61.40;;;;;;4144719;28;20555;-69
2022/02/08 03:52:44;;;;;;;2.75;1.42;;;24.80;60.90;;;;;;4145088;28;21260;-71
2022/02/08 03:55:07;;;;;;;2.80;1.10;;;24.80;60.70;;;;;;4144284;28;20041;-69
2022/02/08 03:57:30;;;;;;;2.75;0.60;;;24.80;60.90;;;;;;4143785;28;20112;-69
2022/02/08 03:59:52;;;;;;;4.35;0.93;;;24.80;61.00;;;;;;4144183;28;20038;-69
2022/02/08 04:07:20;;;;;;;6.10;1.10;;;25.00;61.00;;;;;;4143863;28;20054;-77
2022/02/08 04:09:43;;;;;;;1.98;1.50;;;25.10;61.00;;;;;;4130231;28;20522;-71
2022/02/08 04:12:14;;;;;;;3.72;1.73;;;25.00;60.60;;;;;;4145803;28;20128;-73
2022/02/08 04:17:11;;;;;;;2.22;1.23;;;25.10;60.70;;;;;;4146399;28;20792;-74
2022/02/08 04:19:45;;;;;;;3.15;1.48;;;25.10;60.60;;;;;;4146875;28;20030;-71
2022/02/08 04:35:46;;;;;;;3.28;1.20;;;25.20;60.60;;;;;;4144696;28;20467;-72
2022/02/08 04:38:37;;;;;;;2.20;0.93;;;25.20;60.60;;;;;;4147341;28;20041;-73
2022/02/08 04:41:05;;;;;;;2.47;0.63;;;25.20;60.60;;;;;;4146657;28;20045;-70
2022/02/08 04:43:39;;;;;;;1.02;0.75;;;25.20;61.10;;;;;;4131191;28;20052;-71
2022/02/08 04:46:28;;;;;;;1.52;0.70;;;25.20;60.90;;;;;;4147130;28;20073;-73
2022/02/08 04:48:53;;;;;;;3.10;0.88;;;25.20;61.20;;;;;;4150153;28;20507;-74
2022/02/08 04:51:21;;;;;;;1.55;0.80;;;25.30;60.60;;;;;;4144747;28;20034;-73
2022/02/08 04:54:12;;;;;;;2.85;0.90;;;25.30;61.00;;;;;;4145102;28;20054;-74
2022/02/08 05:37:15;;;;;;;1.02;0.50;;;26.20;59.90;;;;;;4145164;28;20459;-67
2022/02/08 05:46:50;;;;;;;2.17;0.57;;;26.40;59.70;;;;;;4146402;28;20053;-67
2022/02/08 05:49:22;;;;;;;4.07;0.65;;;26.40;59.70;;;;;;4143873;28;20080;-67
2022/02/08 05:51:59;;;;;;;2.42;0.57;;;26.40;59.60;;;;;;4131527;28;20068;-71
2022/02/08 05:54:21;;;;;;;3.60;0.70;;;26.40;59.80;;;;;;4145355;28;20054;-71
2022/02/08 05:56:48;;;;;;;0.60;0.50;;;26.50;59.70;;;;;;4131442;28;20037;-71
2022/02/08 05:59:10;;;;;;;1.95;0.70;;;26.50;59.80;;;;;;4144500;28;20315;-71
2022/02/08 06:01:33;;;;;;;12.90;0.73;;;26.50;59.80;;;;;;4143643;28;20088;-71
2022/02/08 06:03:58;;;;;;;1.42;0.70;;;26.50;59.70;;;;;;4144167;28;20056;-71
2022/02/08 06:06:22;;;;;;;1.25;0.60;;;26.50;59.70;;;;;;4146686;28;20025;-71
2022/02/08 06:08:45;;;;;;;1.75;0.70;;;26.50;59.70;;;;;;4145963;28;20051;-72
2022/02/08 06:11:15;;;;;;;1.20;0.68;;;26.60;59.70;;;;;;4143756;28;20096;-72
2022/02/08 06:13:38;;;;;;;2.40;0.90;;;26.60;59.70;;;;;;4141504;28;20076;-71
2022/02/08 06:16:03;;;;;;;1.58;1.10;;;26.60;59.70;;;;;;4140748;28;20038;-73
2022/02/08 06:18:27;;;;;;;2.42;1.50;;;26.60;59.60;;;;;;4139563;28;20069;-72
2022/02/08 06:20:49;;;;;;;3.17;1.50;;;26.70;59.70;;;;;;4141938;28;20121;-71
2022/02/08 06:23:11;;;;;;;5.15;2.50;;;26.70;59.90;;;;;;4139608;28;20065;-72
2022/02/08 06:25:35;;;;;;;6.57;3.17;;;26.70;60.00;;;;;;4123381;28;20038;-73
2022/02/08 06:27:57;;;;;;;3.67;2.72;;;26.70;59.90;;;;;;4143746;28;20418;-72
2022/02/08 06:30:24;;;;;;;10.35;5.80;;;26.80;60.00;;;;;;4127954;28;20034;-70
2022/02/08 06:32:46;;;;;;;6.60;5.70;;;26.80;60.00;;;;;;4142959;28;20045;-70
2022/02/08 07:16:03;;;;;;;21.48;19.42;;;27.30;60.40;;;;;;4152440;28;20080;-69
2022/02/08 07:18:25;;;;;;;20.98;18.95;;;27.30;60.30;;;;;;4155965;28;20113;-67
2022/02/08 07:20:48;;;;;;;22.30;20.00;;;27.30;60.30;;;;;;4156049;28;20037;-69
2022/02/08 07:23:10;;;;;;;21.42;19.23;;;27.30;60.50;;;;;;4157108;28;20041;-68
2022/02/08 07:25:33;;;;;;;22.27;20.13;;;27.40;60.50;;;;;;4155514;28;20038;-69
2022/02/08 07:27:55;;;;;;;22.65;20.38;;;27.40;60.50;;;;;;4157235;28;20694;-71
2022/02/08 07:30:18;;;;;;;23.20;20.77;;;27.40;60.50;;;;;;4157258;28;20040;-71
2022/02/08 07:32:44;;;;;;;22.92;20.65;;;27.40;60.60;;;;;;4157538;28;20033;-69
2022/02/08 07:37:48;;;;;;;21.83;19.33;;;27.40;60.60;;;;;;4157831;28;20139;-69
2022/02/08 07:40:15;;;;;;;21.75;19.27;;;27.50;60.60;;;;;;4158899;28;20037;-70
2022/02/08 07:42:38;;;;;;;22.90;19.58;;;27.50;60.50;;;;;;4160345;28;20121;-70
2022/02/08 07:45:01;;;;;;;20.27;18.23;;;27.40;60.60;;;;;;4158723;28;20037;-70
2022/02/08 07:47:23;;;;;;;21.67;19.42;;;27.40;60.50;;;;;;4157682;28;20039;-70
2022/02/08 07:49:46;;;;;;;21.38;19.42;;;27.40;60.60;;;;;;4158128;28;20578;-70
2022/02/08 07:52:09;;;;;;;20.77;18.77;;;27.40;60.70;;;;;;4158320;28;20555;-70
2022/02/08 07:54:32;;;;;;;19.95;17.85;;;27.40;60.80;;;;;;4158101;28;20442;-70
2022/02/08 07:56:54;;;;;;;20.25;17.95;;;27.40;60.70;;;;;;4159458;28;20458;-69
2022/02/08 07:59:16;;;;;;;19.90;18.00;;;27.40;60.70;;;;;;4157704;28;20042;-69
2022/02/08 08:01:39;;;;;;;18.88;16.98;;;27.40;60.90;;;;;;4159578;28;20048;-70
2022/02/08 08:04:01;;;;;;;18.65;16.67;;;27.40;60.90;;;;;;4151528;28;21287;-71
2022/02/08 08:06:24;;;;;;;18.90;16.77;;;27.40;60.90;;;;;;4150712;28;21359;-72
2022/02/08 08:08:47;;;;;;;16.90;15.30;;;27.40;61.10;;;;;;4155038;28;20116;-72
2022/02/08 08:11:17;;;;;;;17.35;15.70;;;27.40;61.10;;;;;;4154886;28;20049;-70
2022/02/08 08:13:49;;;;;;;17.30;15.50;;;27.40;61.10;;;;;;4156979;28;20065;-71
2022/02/08 08:16:21;;;;;;;15.98;14.38;;;27.40;61.20;;;;;;4157355;28;20715;-71
2022/02/08 08:19:08;;;;;;;14.98;13.23;;;27.30;61.10;;;;;;4157741;28;20673;-71
2022/02/08 08:21:26;;;;;;;14.25;12.63;;;27.40;61.20;;;;;;4157051;28;20045;-71
2022/02/08 08:23:58;;;;;;;17.35;13.10;;;27.40;61.40;;;;;;4159350;28;20069;-71
2022/02/08 08:26:21;;;;;;;13.60;11.65;;;27.30;61.30;;;;;;4158218;28;20033;-71
2022/02/08 08:28:43;;;;;;;13.13;11.57;;;27.30;61.40;;;;;;4155173;28;20044;-70
2022/02/08 08:31:06;;;;;;;13.05;11.75;;;27.30;61.50;;;;;;4159995;28;20117;-72
2022/02/08 08:33:29;;;;;;;12.73;11.52;;;27.30;61.60;;;;;;4160339;28;20123;-71
2022/02/08 08:35:52;;;;;;;11.60;10.40;;;27.30;61.60;;;;;;4157170;28;20029;-73
2022/02/08 08:38:19;;;;;;;10.45;9.43;;;27.30;61.70;;;;;;4161239;28;20140;-72
2022/02/08 08:40:50;;;;;;;11.13;10.07;;;27.30;61.60;;;;;;4160802;28;20453;-73
2022/02/08 08:43:41;;;;;;;10.60;9.30;;;27.30;61.60;;;;;;4159427;28;20110;-72
2022/02/08 08:49:05;;;;;;;9.52;8.63;;;27.30;61.70;;;;;;4167930;28;20048;-72
2022/02/08 08:51:42;;;;;;;9.43;7.65;;;27.20;61.70;;;;;;4163812;28;20123;-70
2022/02/08 08:54:08;;;;;;;8.98;8.02;;;27.30;61.80;;;;;;4164538;28;20134;-73
2022/02/08 08:56:30;;;;;;;9.07;7.57;;;27.20;61.70;;;;;;4161572;28;20048;-72
2022/02/08 08:58:55;;;;;;;7.90;7.10;;;27.20;61.80;;;;;;4163055;28;20037;-72
2022/02/08 09:01:18;;;;;;;9.10;7.13;;;27.20;62.00;;;;;;4162748;28;20038;-71
2022/02/08 09:03:41;;;;;;;8.52;6.85;;;27.20;62.00;;;;;;4159433;28;20556;-71
2022/02/08 09:06:07;;;;;;;6.45;5.78;;;27.20;62.00;;;;;;4160643;28;20196;-72
2022/02/08 09:08:32;;;;;;;7.18;5.80;;;27.20;62.00;;;;;;4163298;28;20050;-72
2022/02/08 09:11:03;;;;;;;7.38;5.93;;;27.20;62.10;;;;;;4163407;28;20126;-72
2022/02/08 09:13:36;;;;;;;8.27;5.65;;;27.20;62.10;;;;;;4160970;28;20045;-71
2022/02/08 09:16:08;;;;;;;6.47;5.15;;;27.20;62.10;;;;;;4159338;28;20414;-70
2022/02/08 09:31:02;;;;;;;5.20;4.63;;;27.20;62.30;;;;;;4161614;28;20041;-72
2022/02/08 09:33:25;;;;;;;6.68;4.57;;;27.20;62.40;;;;;;4157008;28;20128;-72
2022/02/08 09:47:57;;;;;;;8.93;4.80;;;27.10;62.40;;;;;;3427612;26;20065;-70
2022/02/08 09:50:27;;;;;;;5.65;4.43;;;27.10;62.30;;;;;;4050451;28;20104;-71
2022/02/08 09:52:52;;;;;;;5.00;4.00;;;27.10;62.40;;;;;;4115948;28;20078;-69
2022/02/08 09:55:15;;;;;;;8.05;4.30;;;27.10;62.30;;;;;;4130395;28;20050;-70
2022/02/08 09:57:39;;;;;;;6.95;4.18;;;27.10;62.40;;;;;;4133032;28;20041;-69
2022/02/08 10:00:01;;;;;;;5.07;3.70;;;27.10;62.40;;;;;;4132161;28;20042;-70
2022/02/08 10:02:23;;;;;;;5.38;3.50;;;27.10;62.40;;;;;;4131270;28;20030;-70
2022/02/08 10:04:46;;;;;;;4.88;3.58;;;27.10;62.40;;;;;;4128918;28;20042;-70
2022/02/08 10:07:14;;;;;;;4.18;2.92;;;27.10;62.50;;;;;;4125337;28;20034;-70
2022/02/08 10:09:36;;;;;;;5.20;3.60;;;27.10;62.50;;;;;;4127242;28;20042;-70
2022/02/08 10:11:59;;;;;;;4.32;3.45;;;27.10;62.50;;;;;;4122917;28;20057;-71
2022/02/08 10:14:40;;;;;;;4.00;3.13;;;27.00;62.50;;;;;;4124881;28;20127;-70
2022/02/08 10:22:45;;;;;;;3.78;2.80;;;27.00;62.50;;;;;;4121310;28;20089;-71
2022/02/08 10:25:12;;;;;;;4.75;2.67;;;27.00;62.40;;;;;;4125105;28;20034;-70
2022/02/08 10:27:38;;;;;;;3.75;2.20;;;27.10;62.60;;;;;;4110613;28;20046;-71
2022/02/08 10:30:28;;;;;;;4.00;2.10;;;27.00;62.60;;;;;;4122682;28;20073;-70
2022/02/08 10:38:12;;;;;;;3.80;1.90;;;27.00;62.70;;;;;;4124230;28;20057;-70
2022/02/08 10:40:38;;;;;;;6.07;2.40;;;27.00;62.70;;;;;;4123516;28;20824;-77
2022/02/08 10:43:03;;;;;;;3.15;2.00;;;27.00;62.70;;;;;;4124531;28;20121;-75
2022/02/08 10:45:35;;;;;;;2.95;2.13;;;27.00;62.80;;;;;;4124379;28;20053;-75
2022/02/08 10:48:03;;;;;;;5.00;1.60;;;27.00;62.90;;;;;;4107020;28;20114;-75
2022/02/08 10:50:28;;;;;;;4.00;1.45;;;27.00;62.90;;;;;;4107066;28;20060;-73
2022/02/08 10:52:52;;;;;;;2.67;1.48;;;27.00;62.80;;;;;;4107180;28;20077;-72
2022/02/08 10:57:49;;;;;;;2.08;1.30;;;27.00;62.80;;;;;;4108910;28;19933;-74
2022/02/08 11:00:12;;;;;;;2.67;1.30;;;26.90;62.80;;;;;;4108850;28;20078;-73
2022/02/08 11:02:46;;;;;;;6.35;1.58;;;27.00;62.90;;;;;;4107999;28;20039;-74
2022/02/08 11:05:41;;;;;;;2.22;1.45;;;26.90;62.90;;;;;;4108408;28;20077;-76
2022/02/08 11:10:59;;;;;;;4.32;1.42;;;26.90;63.00;;;;;;4107901;28;20043;-82
2022/02/08 11:15:59;;;;;;;5.20;1.60;;;26.90;63.00;;;;;;4109312;28;20081;-75
2022/02/08 11:21:29;;;;;;;8.48;1.00;;;26.90;63.10;;;;;;4112507;28;20531;-73
2022/02/08 11:26:38;;;;;;;5.72;1.17;;;26.90;63.10;;;;;;4112813;28;20046;-78
2022/02/08 11:29:26;;;;;;;6.77;1.20;;;26.90;63.10;;;;;;4110016;28;20035;-79
2022/02/08 11:32:09;;;;;;;2.65;0.90;;;26.90;63.00;;;;;;4109985;28;20281;-78
2022/02/08 11:45:10;;;;;;;1.92;1.10;;;26.80;62.20;;;;;;4111826;28;20121;-73
2022/02/08 11:51:32;;;;;;;2.65;0.93;;;26.70;62.10;;;;;;4110525;28;20046;-72
2022/02/08 12:01:27;;;;;;;11.70;1.80;;;26.60;62.50;;;;;;4109093;28;20081;-71
2022/02/08 12:04:14;;;;;;;7.70;1.63;;;26.60;62.70;;;;;;4110080;28;20042;-71
2022/02/08 12:07:02;;;;;;;6.47;1.55;;;26.60;62.80;;;;;;4109569;28;20125;-73
2022/02/08 12:09:59;;;;;;;6.07;1.58;;;26.60;62.80;;;;;;4094809;28;20050;-71
2022/02/08 12:12:53;;;;;;;7.40;1.42;;;26.60;63.00;;;;;;4111315;28;20061;-73
2022/02/08 12:36:27;;;;;;;4.65;1.15;;;26.50;63.50;;;;;;4112717;28;20058;-73
2022/02/08 12:50:43;;;;;;;6.63;1.05;;;26.50;63.70;;;;;;4113249;28;20054;-70
2022/02/08 12:55:52;;;;;;;2.30;0.80;;;26.50;63.80;;;;;;4113716;28;20570;-69
2022/02/08 13:05:59;;;;;;;5.05;0.80;;;26.40;63.80;;;;;;4113101;28;20038;-70
2022/02/08 13:17:54;;;;;;;0.75;0.70;;;26.40;63.70;;;;;;4115270;28;20078;-70
2022/02/08 14:02:05;;;;;;;2.33;0.73;;;26.10;63.70;;;;;;4112511;28;20065;-71
2022/02/08 14:07:19;;;;;;;5.22;1.10;;;26.10;63.80;;;;;;4113676;28;20077;-70
2022/02/08 14:09:53;;;;;;;1.20;0.70;;;26.10;63.90;;;;;;4115598;28;20030;-71
2022/02/08 14:14:52;;;;;;;1.00;0.85;;;26.10;63.90;;;;;;4116440;28;19922;-71
2022/02/08 14:19:54;;;;;;;9.82;1.48;;;26.00;63.80;;;;;;4119075;28;20113;-71
2022/02/08 14:30:05;;;;;;;3.15;0.95;;;26.00;64.00;;;;;;4116091;28;20050;-70
2022/02/08 15:09:38;;;;;;;1.67;0.90;;;25.80;64.00;;;;;;4112458;28;20053;-69
2022/02/08 15:12:17;;;;;;;1.05;0.90;;;25.80;64.00;;;;;;4114021;28;20138;-70
2022/02/08 15:14:50;;;;;;;3.45;0.90;;;25.80;64.00;;;;;;4112745;28;20678;-67
2022/02/08 15:17:13;;;;;;;2.73;1.17;;;25.80;63.90;;;;;;4113476;28;20073;-68
2022/02/08 15:19:37;;;;;;;2.15;0.80;;;25.80;63.90;;;;;;4113001;28;20726;-67
2022/02/08 15:22:01;;;;;;;2.17;1.10;;;25.80;63.90;;;;;;4113812;28;20045;-68
2022/02/08 15:24:23;;;;;;;;;;;25.70;63.80;;;;;;4113660;28;20073;-67
2022/02/08 15:26:48;;;;;;;1.48;0.90;;;25.70;64.00;;;;;;4111582;28;20571;-67
2022/02/08 15:29:10;;;;;;;1.80;1.10;;;25.70;63.90;;;;;;4113600;28;20131;-68
2022/02/08 15:31:34;;;;;;;2.55;1.15;;;25.70;64.30;;;;;;4113196;28;20045;-68
2022/02/08 15:33:58;;;;;;;1.85;1.00;;;25.70;63.90;;;;;;4110568;28;20103;-68
2022/02/08 15:36:19;;;;;;;;;;;25.70;64.00;;;;;;4113205;28;20559;-68
2022/02/08 15:38:47;;;;;;;2.58;1.10;;;25.70;64.10;;;;;;4111969;28;19965;-69
2022/02/08 15:41:12;;;;;;;1.45;0.88;;;25.70;64.00;;;;;;4098959;28;20043;-69
2022/02/08 15:43:36;;;;;;;1.35;0.90;;;25.60;64.00;;;;;;4113202;28;20098;-69
2022/02/08 15:46:16;;;;;;;1.65;0.88;;;25.70;64.10;;;;;;4112383;28;20971;-68
2022/02/08 15:48:38;;;;;;;1.13;0.70;;;25.60;64.00;;;;;;4065258;29;20075;-68
2022/02/08 15:51:28;;;;;;;2.80;1.17;;;25.60;64.10;;;;;;4063354;29;20506;-70
2022/02/08 16:07:02;;;;;;;3.33;0.90;;;25.50;64.10;;;;;;4066867;29;20055;-70
2022/02/08 16:09:33;;;;;;;2.22;0.95;;;25.50;64.10;;;;;;4063579;29;20040;-69
2022/02/08 16:12:08;;;;;;;0.90;0.52;;;25.60;64.20;;;;;;4065212;29;20055;-70
2022/02/08 16:14:49;;;;;;;0.98;0.70;;;25.50;64.10;;;;;;4064709;29;20059;-69
2022/02/08 16:18:03;;;;;;;1.58;0.90;;;25.50;64.00;;;;;;4066750;29;20083;-69
2022/02/08 16:20:19;;;;;;;1.65;0.73;;;25.50;64.00;;;;;;4066227;29;20103;-67
2022/02/08 16:25:53;;;;;;;1.88;0.85;;;25.40;64.10;;;;;;4067123;29;20643;-68
2022/02/08 16:46:05;;;;;;;1.90;0.90;;;25.40;64.10;;;;;;4047482;29;20061;-68
2022/02/08 16:48:03;;;;;;;1.27;0.73;;;25.30;64.10;;;;;;4085313;28;20063;-69
2022/02/08 16:54:56;;;;;;;1.70;0.85;;;25.30;64.00;;;;;;4112007;28;20109;-68
2022/02/08 16:59:44;;;;;;;1.02;0.63;;;25.30;64.60;;;;;;4108343;28;20480;-67
2022/02/08 17:02:08;;;;;;;1.65;1.05;;;25.30;64.00;;;;;;4098793;28;20722;-66
2022/02/08 17:04:32;;;;;;;2.90;0.80;;;25.30;64.00;;;;;;4109969;28;20046;-66
2022/02/08 17:06:54;;;;;;;;;;;25.20;64.00;;;;;;4111273;28;20117;-67
2022/02/08 17:09:43;;;;;;;1.98;0.80;;;25.20;64.10;;;;;;4114734;28;19965;-67
2022/02/08 17:12:10;;;;;;;1.15;0.60;;;25.20;64.00;;;;;;4114948;28;20038;-67
2022/02/08 17:17:47;;;;;;;1.13;0.85;;;25.20;64.20;;;;;;4115133;28;19986;-70
2022/02/08 17:47:19;;;;;;;1.85;0.90;;;25.00;64.00;;;;;;4114537;28;20061;-68
2022/02/08 17:49:42;;;;;;;1.33;0.65;;;25.00;64.10;;;;;;4112772;28;20046;-68
2022/02/08 17:52:05;;;;;;;1.45;0.65;;;25.00;64.70;;;;;;4113218;28;20125;-67
2022/02/08 17:54:27;;;;;;;1.67;0.83;;;25.00;64.10;;;;;;4112228;28;20106;-68
2022/02/08 17:56:50;;;;;;;2.08;0.82;;;25.00;64.00;;;;;;4113136;28;20288;-66
2022/02/08 17:59:12;;;;;;;3.30;0.98;;;24.90;64.00;;;;;;4111558;28;20038;-66
2022/02/08 18:01:35;;;;;;;2.17;0.80;;;24.90;64.00;;;;;;4114616;28;20031;-66
2022/02/08 18:03:57;;;;;;;1.02;0.70;;;24.90;64.10;;;;;;4112549;28;20397;-67
2022/02/08 18:06:20;;;;;;;1.48;0.80;;;24.90;64.00;;;;;;4111412;28;20042;-67
2022/02/08 18:08:42;;;;;;;3.03;0.88;;;24.90;64.10;;;;;;4113070;28;20034;-67
2022/02/08 18:11:04;;;;;;;1.55;0.82;;;24.90;64.10;;;;;;4111521;28;20041;-67
2022/02/08 18:13:30;;;;;;;2.45;0.85;;;24.80;64.00;;;;;;4111468;28;20110;-65
2022/02/08 18:15:52;;;;;;;2.45;1.08;;;24.80;64.00;;;;;;4112753;28;20093;-67
2022/02/08 18:20:50;;;;;;;2.65;0.93;;;24.80;64.10;;;;;;4115840;28;20046;-67
2022/02/08 18:23:46;;;;;;;3.13;1.00;;;24.80;64.10;;;;;;4114661;28;20046;-67
2022/02/08 18:50:21;;;;;;;1.60;0.85;;;24.80;64.10;;;;;;4114627;28;20110;-66
2022/02/08 18:52:27;;;;;;;1.20;0.73;;;24.60;64.20;;;;;;4120802;28;20428;-67
2022/02/08 18:56:22;;;;;;;1.92;0.98;;;24.60;64.20;;;;;;4119850;28;20093;-66
2022/02/08 19:09:23;;;;;;;0.70;0.60;;;24.60;64.30;;;;;;4114924;28;20539;-68
2022/02/08 19:12:00;;;;;;;2.92;0.90;;;24.50;64.30;;;;;;4113455;28;20038;-67
2022/02/08 19:15:04;;;;;;;1.85;1.05;;;24.50;64.30;;;;;;4111753;28;20558;-68
2022/02/08 19:17:20;;;;;;;1.58;1.10;;;24.50;64.30;;;;;;4113872;28;20073;-69
2022/02/08 19:19:54;;;;;;;1.60;0.90;;;24.50;64.30;;;;;;4112480;28;20738;-69
2022/02/08 19:22:16;;;;;;;2.40;1.25;;;24.50;64.40;;;;;;4112845;28;20066;-69
2022/02/08 19:24:39;;;;;;;1.17;0.65;;;24.40;64.40;;;;;;4114988;28;21057;-69
2022/02/08 19:27:02;;;;;;;1.20;0.70;;;24.40;64.30;;;;;;4112379;28;20103;-69
2022/02/08 19:29:26;;;;;;;3.93;1.23;;;24.40;64.30;;;;;;4113536;28;20126;-69
2022/02/08 19:31:49;;;;;;;2.97;1.17;;;24.40;64.30;;;;;;4112373;28;20033;-69
2022/02/08 19:34:11;;;;;;;1.90;1.10;;;24.40;64.70;;;;;;4112903;28;20054;-67
2022/02/08 19:36:34;;;;;;;2.25;1.08;;;24.40;64.40;;;;;;4114965;28;20046;-67
2022/02/08 19:38:59;;;;;;;2.03;1.10;;;24.40;64.30;;;;;;4115702;28;20042;-67
2022/02/08 19:41:22;;;;;;;0.98;0.60;;;24.30;64.20;;;;;;4113349;28;20030;-66
2022/02/08 19:43:44;;;;;;;1.35;0.65;;;24.30;64.30;;;;;;4113925;28;20081;-67
2022/02/08 19:46:07;;;;;;;1.48;0.90;;;24.30;64.30;;;;;;4112013;28;20643;-67
2022/02/08 19:48:29;;;;;;;1.88;1.10;;;24.30;64.30;;;;;;4100737;28;20047;-68
2022/02/08 19:50:52;;;;;;;2.42;0.95;;;24.30;64.40;;;;;;4111015;28;20363;-68
2022/02/08 19:53:14;;;;;;;2.25;1.10;;;24.30;64.30;;;;;;4111502;28;20031;-67
2022/02/08 19:58:19;;;;;;;3.30;1.08;;;24.30;64.40;;;;;;4111752;28;20496;-68
2022/02/08 20:00:45;;;;;;;2.55;0.80;;;24.20;64.30;;;;;;4111905;28;20034;-69
2022/02/08 20:03:09;;;;;;;1.25;1.00;;;24.20;64.20;;;;;;4112260;28;20034;-68
2022/02/08 20:05:32;;;;;;;;;;;24.20;64.30;;;;;;4111525;28;20665;-68
2022/02/08 20:07:55;;;;;;;1.27;1.00;;;24.20;64.50;;;;;;4111497;28;19910;-68
2022/02/08 20:10:18;;;;;;;1.73;0.70;;;24.20;64.30;;;;;;4112281;28;20529;-68
2022/02/08 20:12:40;;;;;;;3.40;0.82;;;24.20;64.40;;;;;;4112168;28;20125;-67
2022/02/08 20:15:06;;;;;;;1.88;1.02;;;24.10;64.30;;;;;;4097625;28;20125;-69
2022/02/08 20:17:28;;;;;;;2.08;0.80;;;24.10;64.30;;;;;;4111234;28;20073;-68
2022/02/08 20:19:53;;;;;;;1.40;0.70;;;24.10;64.30;;;;;;4111714;28;20047;-68
2022/02/08 20:22:15;;;;;;;1.33;0.70;;;24.10;64.30;;;;;;4111549;28;20084;-66
2022/02/08 20:24:38;;;;;;;1.58;0.90;;;24.00;64.30;;;;;;4112841;28;20058;-67
2022/02/08 20:29:45;;;;;;;1.83;0.70;;;24.00;64.30;;;;;;4112210;28;20051;-67